Time;durP1;ratioP1;P1;durP2;ratioP2;P2;SDS_P1;SDS_P2;PMS_P1;PMS_P2;Temp;Humidity;BMP_temperature;BMP_pressure;BME280_temperature;BME280_humidity;BME280_pressure;Samples;Min_cycle;Max_cycle;Signal;HPM_P1;HPM_P2
2023/10/26 00:01:15;;;;;;;77.07;37.17;;;10.00;99.90;;;;;;5083210;28;20130;-83
2023/10/26 00:04:01;;;;;;;69.78;34.05;;;9.90;99.90;;;;;;5094846;28;20207;-84
2023/10/26 00:06:47;;;;;;;88.18;37.90;;;9.90;99.90;;;;;;5113833;28;20130;-87
2023/10/26 00:09:33;;;;;;;72.60;37.50;;;9.90;99.90;;;;;;5097349;28;20175;-83
2023/10/26 00:12:19;;;;;;;73.88;36.83;;;9.80;99.90;;;;;;5084353;28;20146;-83
2023/10/26 00:15:06;;;;;;;81.50;36.80;;;9.90;99.90;;;;;;5095786;28;20047;-87
2023/10/26 00:17:52;;;;;;;91.45;38.40;;;9.80;99.90;;;;;;5095572;28;20077;-80
2023/10/26 00:20:37;;;;;;;77.53;37.63;;;9.80;99.90;;;;;;5091856;28;20051;-87
2023/10/26 00:23:24;;;;;;;73.47;39.20;;;9.80;99.90;;;;;;5063081;28;20143;-82
2023/10/26 00:26:10;;;;;;;86.53;37.58;;;9.80;99.90;;;;;;5075259;28;20451;-81
2023/10/26 00:28:56;;;;;;;83.05;38.88;;;9.70;99.90;;;;;;5092912;28;20054;-81
2023/10/26 00:31:42;;;;;;;80.88;38.58;;;9.70;99.90;;;;;;5075119;28;20056;-80
2023/10/26 00:34:28;;;;;;;79.20;37.45;;;9.70;99.90;;;;;;5093208;28;20044;-80
2023/10/26 00:37:14;;;;;;;73.78;36.88;;;9.60;99.90;;;;;;5074913;28;20052;-73
2023/10/26 00:40:00;;;;;;;81.30;36.95;;;9.60;99.90;;;;;;5092190;28;20106;-86
2023/10/26 00:42:46;;;;;;;75.05;36.88;;;9.70;99.90;;;;;;5077301;28;20048;-85
2023/10/26 00:45:35;;;;;;;80.40;38.30;;;9.70;99.90;;;;;;5060008;28;20079;-82
2023/10/26 00:48:22;;;;;;;72.13;35.70;;;9.60;99.90;;;;;;5059772;28;20530;-85
2023/10/26 00:51:08;;;;;;;73.85;36.83;;;9.70;99.90;;;;;;5074540;28;20464;-85
2023/10/26 00:53:54;;;;;;;75.07;37.30;;;9.70;99.90;;;;;;5092006;28;20098;-85
2023/10/26 00:56:41;;;;;;;91.40;37.72;;;9.60;99.90;;;;;;5077705;28;20039;-87
2023/10/26 00:59:28;;;;;;;73.57;37.35;;;9.60;99.90;;;;;;5062709;28;20044;-85
2023/10/26 01:02:16;;;;;;;86.97;39.83;;;9.60;99.90;;;;;;5077009;28;20139;-86
2023/10/26 01:05:03;;;;;;;85.22;39.63;;;9.60;99.90;;;;;;5075012;28;20052;-83
2023/10/26 01:07:49;;;;;;;81.47;38.55;;;9.60;99.90;;;;;;5081532;28;20056;-79
2023/10/26 01:10:35;;;;;;;89.25;40.33;;;9.70;99.90;;;;;;5089220;28;20404;-79
2023/10/26 01:13:21;;;;;;;85.95;38.95;;;9.70;99.90;;;;;;5108166;28;20069;-87
2023/10/26 01:16:07;;;;;;;85.80;38.72;;;9.70;99.90;;;;;;5080812;28;20097;-87
2023/10/26 01:18:53;;;;;;;78.45;37.33;;;9.80;99.90;;;;;;5093033;28;20047;-82
2023/10/26 01:21:52;;;;;;;70.63;35.35;;;9.80;99.90;;;;;;5074273;28;20584;-88
2023/10/26 01:24:39;;;;;;;96.70;40.33;;;9.80;99.90;;;;;;5074537;28;20052;-86
2023/10/26 01:27:25;;;;;;;82.82;37.97;;;9.70;99.90;;;;;;5074700;28;20040;-88
2023/10/26 01:30:12;;;;;;;92.00;38.30;;;9.70;99.90;;;;;;5073724;28;20044;-86
2023/10/26 01:32:58;;;;;;;95.13;40.25;;;9.70;99.90;;;;;;5059640;28;20126;-87
2023/10/26 01:35:45;;;;;;;90.00;40.20;;;9.70;99.90;;;;;;5073856;28;20122;-87
2023/10/26 01:38:31;;;;;;;71.68;35.80;;;9.60;99.90;;;;;;5073520;28;20102;-88
2023/10/26 01:41:17;;;;;;;80.22;37.05;;;9.70;99.90;;;;;;5073600;28;20048;-80
2023/10/26 01:44:03;;;;;;;82.82;37.38;;;9.70;99.90;;;;;;5076590;28;20059;-82
2023/10/26 01:46:49;;;;;;;78.05;37.47;;;9.70;99.90;;;;;;5072922;28;20404;-87
2023/10/26 01:49:36;;;;;;;66.18;32.88;;;9.70;99.90;;;;;;5092007;28;20044;-82
2023/10/26 01:52:22;;;;;;;82.70;37.15;;;9.80;99.90;;;;;;5073282;28;20052;-87
2023/10/26 01:55:08;;;;;;;98.00;40.10;;;9.80;99.90;;;;;;5073663;28;20086;-82
2023/10/26 01:57:54;;;;;;;66.80;32.40;;;9.70;99.90;;;;;;5092312;28;20056;-84
2023/10/26 02:00:40;;;;;;;95.38;38.40;;;9.70;99.90;;;;;;5091901;28;20048;-87
2023/10/26 02:03:26;;;;;;;74.78;37.33;;;9.70;99.90;;;;;;5090551;28;20054;-87
2023/10/26 02:06:14;;;;;;;76.80;35.55;;;9.70;99.90;;;;;;5091964;28;20048;-87
2023/10/26 02:09:00;;;;;;;83.15;36.85;;;9.70;99.90;;;;;;5091844;28;20115;-87
2023/10/26 02:11:46;;;;;;;93.63;39.00;;;9.70;99.90;;;;;;5075935;28;20052;-88
2023/10/26 02:14:32;;;;;;;96.45;39.33;;;9.70;99.90;;;;;;5090159;28;20170;-83
2023/10/26 02:17:18;;;;;;;67.30;33.85;;;9.70;99.90;;;;;;5073393;28;20047;-86
2023/10/26 02:20:04;;;;;;;78.70;34.05;;;9.70;99.90;;;;;;5072979;28;20044;-86
2023/10/26 02:22:50;;;;;;;73.80;35.70;;;9.70;99.90;;;;;;5058643;28;20056;-84
2023/10/26 02:25:36;;;;;;;84.63;37.22;;;9.70;99.90;;;;;;5072873;28;20051;-88
2023/10/26 02:28:23;;;;;;;76.88;35.70;;;9.70;99.90;;;;;;5072268;28;20484;-84
2023/10/26 02:31:09;;;;;;;87.68;39.83;;;9.70;99.90;;;;;;5075829;28;20094;-80
2023/10/26 02:33:56;;;;;;;79.38;37.42;;;9.70;99.90;;;;;;5087698;28;20115;-82
2023/10/26 02:36:42;;;;;;;70.95;34.17;;;9.70;99.90;;;;;;5075448;28;20150;-84
2023/10/26 02:39:28;;;;;;;63.97;32.15;;;9.70;99.90;;;;;;5073195;28;20145;-89
2023/10/26 02:42:14;;;;;;;77.45;35.53;;;9.70;99.90;;;;;;5072547;28;20087;-89
2023/10/26 02:45:00;;;;;;;77.03;36.72;;;9.70;99.90;;;;;;5090690;28;20052;-82
2023/10/26 02:47:46;;;;;;;73.40;35.60;;;9.60;99.90;;;;;;5073363;28;20086;-80
2023/10/26 02:50:35;;;;;;;69.50;32.38;;;9.60;99.90;;;;;;5072765;28;20043;-86
2023/10/26 02:53:21;;;;;;;75.78;33.90;;;9.50;99.90;;;;;;5075584;28;20060;-87
2023/10/26 02:56:07;;;;;;;73.53;33.03;;;9.40;99.90;;;;;;5080230;28;20048;-88
2023/10/26 02:58:53;;;;;;;59.05;28.80;;;9.40;99.90;;;;;;5077655;28;20553;-88
2023/10/26 03:01:39;;;;;;;66.65;32.22;;;9.30;99.90;;;;;;5077589;28;20048;-88
2023/10/26 03:04:25;;;;;;;66.28;32.25;;;9.30;99.90;;;;;;5078075;28;20056;-85
2023/10/26 03:07:11;;;;;;;67.57;33.30;;;9.20;99.90;;;;;;5063477;28;20052;-87
2023/10/26 03:09:57;;;;;;;76.72;34.28;;;9.20;99.90;;;;;;5063234;28;20486;-83
2023/10/26 03:12:46;;;;;;;76.80;33.45;;;9.10;99.90;;;;;;5083640;28;20411;-83
2023/10/26 03:15:32;;;;;;;58.78;28.92;;;9.10;99.90;;;;;;5103079;28;20055;-85
2023/10/26 03:18:18;;;;;;;74.95;32.60;;;9.00;99.90;;;;;;5084302;28;20055;-84
2023/10/26 03:21:05;;;;;;;52.78;28.02;;;8.90;99.90;;;;;;5101998;28;20055;-85
2023/10/26 03:23:54;;;;;;;104.95;36.33;;;8.90;99.90;;;;;;5102709;28;20078;-79
2023/10/26 03:26:40;;;;;;;70.38;30.15;;;8.80;99.90;;;;;;5078896;28;20479;-76
2023/10/26 03:29:26;;;;;;;45.60;23.88;;;8.70;99.90;;;;;;5061933;28;20048;-82
2023/10/26 03:32:12;;;;;;;44.55;23.48;;;8.60;99.90;;;;;;5075183;28;20050;-79
2023/10/26 03:34:59;;;;;;;84.45;31.55;;;8.50;99.90;;;;;;5075107;28;20062;-79
2023/10/26 03:37:45;;;;;;;102.75;35.83;;;8.40;99.90;;;;;;5062525;28;20039;-78
2023/10/26 03:40:31;;;;;;;68.07;29.00;;;8.40;99.90;;;;;;5075750;28;20048;-77
2023/10/26 03:43:18;;;;;;;102.22;36.60;;;8.40;99.90;;;;;;5075393;28;20051;-78
2023/10/26 03:46:05;;;;;;;71.15;30.08;;;8.30;99.90;;;;;;5074892;28;20056;-81
2023/10/26 03:48:51;;;;;;;72.78;29.92;;;8.30;99.90;;;;;;5098189;28;20040;-75
2023/10/26 03:51:37;;;;;;;62.22;28.05;;;8.30;99.90;;;;;;5096442;28;20464;-74
2023/10/26 03:54:23;;;;;;;94.93;35.55;;;8.20;99.90;;;;;;5067340;28;20190;-75
2023/10/26 03:57:09;;;;;;;46.70;24.05;;;8.20;99.90;;;;;;5065884;28;20048;-75
2023/10/26 03:59:56;;;;;;;66.03;28.23;;;8.20;99.90;;;;;;5074920;28;20074;-79
2023/10/26 04:02:42;;;;;;;55.55;26.42;;;8.10;99.90;;;;;;5046291;28;20047;-75
2023/10/26 04:05:28;;;;;;;69.57;29.05;;;8.10;99.90;;;;;;5075602;28;20048;-82
2023/10/26 04:08:14;;;;;;;60.95;26.38;;;8.00;99.90;;;;;;5074226;28;20574;-78
2023/10/26 04:11:00;;;;;;;91.43;32.50;;;8.00;99.90;;;;;;5078010;28;20404;-80
2023/10/26 04:13:46;;;;;;;51.78;24.52;;;8.00;99.90;;;;;;5075793;28;20052;-75
2023/10/26 04:16:32;;;;;;;44.45;21.80;;;7.90;99.90;;;;;;5093555;28;20495;-77
2023/10/26 04:19:18;;;;;;;70.50;25.65;;;7.90;99.90;;;;;;5060967;28;20101;-77
2023/10/26 04:22:05;;;;;;;55.58;18.98;;;7.80;99.90;;;;;;5093481;28;20724;-85
2023/10/26 04:24:51;;;;;;;38.83;18.50;;;7.80;99.90;;;;;;5074539;28;20143;-77
2023/10/26 04:27:37;;;;;;;39.95;19.90;;;7.80;99.90;;;;;;5060342;28;20048;-80
2023/10/26 04:30:23;;;;;;;35.75;18.48;;;7.90;99.90;;;;;;5075215;28;20551;-75
2023/10/26 04:33:09;;;;;;;35.35;17.63;;;7.90;99.90;;;;;;5092703;28;20084;-80
2023/10/26 04:35:55;;;;;;;46.13;22.02;;;7.90;99.90;;;;;;5062275;28;20060;-82
2023/10/26 04:38:41;;;;;;;47.88;21.02;;;7.90;99.90;;;;;;5075714;28;20059;-82
2023/10/26 04:41:27;;;;;;;56.65;21.95;;;7.90;99.90;;;;;;5073877;28;20052;-84
2023/10/26 04:44:13;;;;;;;43.97;21.67;;;7.90;99.90;;;;;;5075710;28;20083;-81
2023/10/26 04:46:59;;;;;;;53.78;23.65;;;8.00;99.90;;;;;;5080814;28;20056;-86
2023/10/26 04:49:45;;;;;;;89.70;30.83;;;8.00;99.90;;;;;;5091783;28;20054;-75
2023/10/26 04:52:32;;;;;;;61.67;25.80;;;8.00;99.90;;;;;;5061479;28;20059;-77
2023/10/26 04:55:18;;;;;;;43.55;21.85;;;8.10;99.90;;;;;;5073190;28;20518;-75
2023/10/26 04:58:04;;;;;;;68.97;27.20;;;8.10;99.90;;;;;;5061122;28;20047;-80
2023/10/26 05:00:50;;;;;;;51.92;25.40;;;8.10;99.90;;;;;;5074338;28;20060;-77
2023/10/26 05:03:37;;;;;;;68.28;25.58;;;8.10;99.90;;;;;;5073825;28;20139;-81
2023/10/26 05:06:24;;;;;;;66.53;26.65;;;8.10;99.90;;;;;;5073954;28;20415;-79
2023/10/26 05:09:09;;;;;;;76.55;29.17;;;8.20;99.90;;;;;;5073891;28;20094;-75
2023/10/26 05:11:56;;;;;;;68.80;30.30;;;8.20;99.90;;;;;;5062440;28;20059;-84
2023/10/26 05:14:42;;;;;;;102.82;35.72;;;8.30;99.90;;;;;;5101696;28;20068;-77
2023/10/26 05:17:28;;;;;;;85.00;32.05;;;8.40;99.90;;;;;;5084150;28;20048;-81
2023/10/26 05:20:14;;;;;;;75.80;30.17;;;8.50;99.90;;;;;;5094064;28;20052;-88
2023/10/26 05:23:02;;;;;;;91.78;35.53;;;8.60;99.90;;;;;;5074612;28;20048;-88
2023/10/26 05:25:48;;;;;;;82.78;34.20;;;8.60;99.90;;;;;;5073831;28;20056;-86
2023/10/26 05:28:34;;;;;;;93.78;36.28;;;8.70;99.90;;;;;;5073026;28;20495;-87
2023/10/26 05:31:20;;;;;;;98.43;37.20;;;8.80;99.90;;;;;;5091205;28;20056;-81
2023/10/26 05:34:06;;;;;;;102.55;37.53;;;8.90;99.90;;;;;;5074558;28;20056;-85
2023/10/26 05:36:52;;;;;;;83.00;33.78;;;9.00;99.90;;;;;;5073029;28;20575;-79
2023/10/26 05:39:38;;;;;;;107.28;39.20;;;9.00;99.90;;;;;;5091927;28;20050;-85
2023/10/26 05:42:24;;;;;;;120.78;41.95;;;9.10;99.90;;;;;;5092456;28;20459;-85
2023/10/26 05:45:10;;;;;;;91.63;36.50;;;9.10;99.90;;;;;;5059114;28;20047;-87
2023/10/26 05:47:56;;;;;;;84.15;35.45;;;9.10;99.90;;;;;;5092020;28;20055;-85
2023/10/26 05:50:43;;;;;;;91.60;37.10;;;9.10;99.90;;;;;;5072856;28;20134;-87
2023/10/26 05:53:29;;;;;;;88.90;34.90;;;9.20;99.90;;;;;;5072546;28;20081;-86
2023/10/26 05:56:15;;;;;;;97.30;37.00;;;9.20;99.90;;;;;;5072485;28;20051;-85
2023/10/26 05:59:01;;;;;;;87.88;35.53;;;9.30;99.90;;;;;;5059305;28;20519;-86
2023/10/26 06:01:47;;;;;;;86.90;35.53;;;9.30;99.90;;;;;;5072428;28;20060;-86
2023/10/26 06:04:33;;;;;;;85.38;36.63;;;9.30;99.90;;;;;;5058377;28;20070;-86
2023/10/26 06:07:19;;;;;;;89.38;38.08;;;9.30;99.90;;;;;;5073266;28;20409;-87
2023/10/26 06:10:06;;;;;;;83.15;36.20;;;9.40;99.90;;;;;;5058775;28;20075;-89
2023/10/26 06:12:52;;;;;;;88.47;37.28;;;9.40;99.90;;;;;;5059250;28;20056;-81
2023/10/26 06:15:38;;;;;;;78.75;33.22;;;9.40;99.90;;;;;;5073567;28;20106;-79
2023/10/26 06:18:24;;;;;;;90.22;36.08;;;9.50;99.90;;;;;;5073586;28;20411;-90
2023/10/26 06:21:10;;;;;;;85.55;36.05;;;9.40;99.90;;;;;;5071929;28;20051;-83
2023/10/26 06:23:56;;;;;;;81.68;35.50;;;9.50;99.90;;;;;;5074411;28;20044;-83
2023/10/26 06:26:42;;;;;;;84.95;35.20;;;9.50;99.90;;;;;;5075822;28;20110;-85
2023/10/26 06:29:28;;;;;;;78.85;35.25;;;9.60;99.90;;;;;;5080644;28;20055;-83
2023/10/26 06:32:14;;;;;;;63.58;30.52;;;9.50;99.90;;;;;;5085942;28;20108;-81
2023/10/26 06:35:00;;;;;;;70.82;33.85;;;9.60;99.90;;;;;;5103139;28;20130;-84
2023/10/26 06:37:46;;;;;;;70.22;31.75;;;9.60;99.90;;;;;;5095401;28;20047;-80
2023/10/26 06:40:32;;;;;;;77.00;35.05;;;9.60;99.90;;;;;;5094668;28;20040;-82
2023/10/26 06:43:18;;;;;;;66.93;33.00;;;9.60;99.90;;;;;;5093733;28;20514;-87
2023/10/26 06:46:06;;;;;;;73.32;32.58;;;9.60;99.90;;;;;;5063374;28;20060;-83
2023/10/26 06:48:54;;;;;;;68.50;32.10;;;9.70;99.90;;;;;;5090438;28;20469;-85
2023/10/26 06:51:40;;;;;;;66.18;32.40;;;9.70;99.90;;;;;;5073967;28;20055;-87
2023/10/26 06:54:26;;;;;;;66.00;30.58;;;9.70;99.90;;;;;;5075674;28;20056;-84
2023/10/26 06:57:12;;;;;;;64.10;29.95;;;9.70;99.90;;;;;;5077143;28;20377;-85
2023/10/26 06:59:58;;;;;;;62.30;27.80;;;9.80;99.90;;;;;;5074394;28;20377;-86
2023/10/26 07:02:44;;;;;;;61.55;27.52;;;9.80;99.90;;;;;;5086369;28;20063;-84
2023/10/26 07:05:30;;;;;;;62.10;29.67;;;9.80;99.90;;;;;;5085386;28;20051;-87
2023/10/26 07:08:16;;;;;;;52.35;27.08;;;9.80;99.90;;;;;;5070736;28;20036;-89
2023/10/26 07:11:06;;;;;;;47.25;24.15;;;9.80;99.90;;;;;;5069826;28;20052;-78
2023/10/26 07:13:52;;;;;;;56.05;26.73;;;9.80;99.90;;;;;;5072385;28;20056;-81
2023/10/26 07:16:38;;;;;;;46.78;26.05;;;9.80;99.90;;;;;;5071817;28;20062;-84
2023/10/26 07:19:24;;;;;;;49.78;25.75;;;9.80;99.90;;;;;;5072497;28;20448;-82
2023/10/26 07:22:10;;;;;;;46.97;24.38;;;9.80;99.90;;;;;;5090934;28;20059;-80
2023/10/26 07:24:56;;;;;;;61.83;26.63;;;9.80;99.90;;;;;;5071122;28;20500;-85
2023/10/26 07:27:43;;;;;;;51.15;26.55;;;9.80;99.90;;;;;;5071989;28;20052;-80
2023/10/26 07:30:29;;;;;;;53.90;25.25;;;9.80;99.90;;;;;;5071822;28;20047;-75
2023/10/26 07:33:15;;;;;;;46.92;23.73;;;9.90;99.90;;;;;;5057076;28;20071;-79
2023/10/26 07:36:01;;;;;;;51.40;24.90;;;9.90;99.90;;;;;;5058339;28;20044;-79
2023/10/26 07:38:47;;;;;;;45.40;22.70;;;9.90;99.90;;;;;;5061079;28;20505;-86
2023/10/26 07:41:33;;;;;;;42.70;24.98;;;9.90;99.90;;;;;;5078738;28;20059;-82
2023/10/26 07:44:19;;;;;;;48.20;23.75;;;9.90;99.90;;;;;;5075668;28;20088;-85
2023/10/26 07:47:08;;;;;;;47.40;23.75;;;9.90;99.90;;;;;;5064536;28;20123;-86
2023/10/26 07:49:54;;;;;;;51.25;25.30;;;10.00;99.90;;;;;;5073634;28;20075;-78
2023/10/26 07:52:40;;;;;;;37.15;20.42;;;10.00;99.90;;;;;;5076795;28;20054;-83
2023/10/26 07:55:26;;;;;;;41.78;22.05;;;10.10;99.90;;;;;;5093177;28;20543;-83
2023/10/26 07:58:12;;;;;;;47.38;22.63;;;10.00;99.90;;;;;;5062272;28;20621;-86
2023/10/26 08:00:58;;;;;;;46.28;24.40;;;10.10;99.90;;;;;;5094512;28;20601;-82
2023/10/26 08:03:44;;;;;;;50.72;23.55;;;10.10;99.90;;;;;;5062683;28;20091;-79
2023/10/26 08:06:30;;;;;;;47.90;24.10;;;10.10;99.90;;;;;;5074327;28;20052;-82
2023/10/26 08:09:16;;;;;;;42.45;22.55;;;10.20;99.90;;;;;;5075561;28;20059;-88
2023/10/26 08:12:03;;;;;;;59.78;23.67;;;10.20;99.90;;;;;;5074496;28;20412;-83
2023/10/26 08:14:51;;;;;;;47.05;23.52;;;10.30;99.90;;;;;;5075934;28;20052;-87
2023/10/26 08:17:37;;;;;;;46.33;23.75;;;10.30;99.90;;;;;;5093629;28;20044;-85
2023/10/26 08:20:23;;;;;;;56.42;24.30;;;10.30;99.90;;;;;;5075209;28;20055;-81
2023/10/26 08:23:09;;;;;;;50.05;24.25;;;10.40;99.90;;;;;;5061589;28;20051;-83
2023/10/26 08:25:56;;;;;;;40.15;21.83;;;10.40;99.90;;;;;;5093748;28;20059;-83
2023/10/26 08:28:42;;;;;;;43.88;21.95;;;10.50;99.90;;;;;;5074379;28;20063;-86
2023/10/26 08:31:34;;;;;;;39.38;20.13;;;10.50;99.90;;;;;;5078487;28;20507;-86
2023/10/26 08:34:20;;;;;;;39.50;20.00;;;10.50;99.90;;;;;;5113599;28;20044;-86
2023/10/26 08:37:06;;;;;;;45.03;22.15;;;10.60;99.90;;;;;;5095531;28;20062;-80
2023/10/26 08:39:52;;;;;;;43.88;22.67;;;10.60;99.90;;;;;;5094913;28;20083;-87
2023/10/26 08:42:44;;;;;;;37.95;20.92;;;10.60;99.90;;;;;;5114476;28;20441;-86
2023/10/26 08:45:31;;;;;;;40.08;21.33;;;10.70;99.90;;;;;;5094517;28;20499;-86
2023/10/26 08:48:18;;;;;;;41.03;22.23;;;10.70;99.90;;;;;;5094123;28;20093;-79
2023/10/26 08:51:05;;;;;;;47.40;23.58;;;10.80;99.90;;;;;;5094924;28;20090;-79
2023/10/26 08:53:51;;;;;;;44.85;23.08;;;10.80;99.90;;;;;;5094664;28;20047;-88
2023/10/26 08:56:37;;;;;;;43.78;21.67;;;10.80;99.90;;;;;;5113401;28;20056;-85
2023/10/26 08:59:23;;;;;;;43.28;23.98;;;10.90;99.90;;;;;;5096279;28;20511;-83
2023/10/26 09:02:09;;;;;;;41.97;21.40;;;10.90;99.90;;;;;;5082462;28;20519;-87
2023/10/26 09:05:03;;;;;;;41.25;22.90;;;11.00;99.90;;;;;;5095421;28;20063;-84
2023/10/26 09:07:51;;;;;;;43.13;22.92;;;11.10;99.90;;;;;;5081164;28;20052;-85
2023/10/26 09:10:37;;;;;;;45.03;23.50;;;11.10;99.90;;;;;;5096265;28;20100;-81
2023/10/26 09:13:27;;;;;;;43.53;24.45;;;11.10;99.90;;;;;;5117170;28;20054;-83
2023/10/26 09:16:13;;;;;;;45.50;23.80;;;11.10;99.90;;;;;;5102381;28;20056;-86
2023/10/26 09:19:00;;;;;;;40.78;23.80;;;11.10;99.90;;;;;;5087978;28;20048;-86
2023/10/26 09:21:51;;;;;;;47.22;25.15;;;11.00;99.90;;;;;;5114528;28;20112;-82
2023/10/26 09:24:37;;;;;;;41.67;22.67;;;11.10;99.90;;;;;;5095398;28;20405;-82
2023/10/26 09:27:23;;;;;;;42.40;24.25;;;11.00;99.90;;;;;;5093425;28;20081;-84
2023/10/26 09:30:27;;;;;;;41.25;22.42;;;11.00;99.90;;;;;;5094399;28;20043;-82
2023/10/26 09:33:23;;;;;;;44.15;23.73;;;11.00;99.90;;;;;;5112647;28;20047;-81
2023/10/26 09:36:14;;;;;;;45.38;24.20;;;11.10;99.90;;;;;;5112311;28;20044;-85
2023/10/26 09:39:04;;;;;;;46.92;25.35;;;11.10;99.90;;;;;;5097889;28;20043;-83
2023/10/26 09:41:50;;;;;;;40.67;24.27;;;11.10;99.90;;;;;;5078546;28;20059;-79
2023/10/26 09:44:37;;;;;;;41.90;24.27;;;11.20;99.90;;;;;;5079504;28;20055;-81
2023/10/26 09:47:23;;;;;;;43.25;25.30;;;11.30;99.90;;;;;;5093023;28;20055;-77
2023/10/26 09:50:10;;;;;;;43.58;25.00;;;11.40;99.90;;;;;;5093558;28;20176;-78
2023/10/26 09:52:58;;;;;;;44.67;23.10;;;11.40;99.90;;;;;;5111810;28;20086;-87
2023/10/26 09:55:47;;;;;;;44.20;25.25;;;11.40;99.90;;;;;;5079863;28;20056;-86
2023/10/26 09:58:40;;;;;;;42.20;24.33;;;11.50;99.90;;;;;;5111260;28;20036;-87
2023/10/26 10:01:40;;;;;;;38.22;23.77;;;11.60;99.90;;;;;;5110943;28;20047;-85
2023/10/26 10:04:37;;;;;;;39.83;23.45;;;11.70;99.90;;;;;;5080238;28;20581;-83
2023/10/26 10:07:44;;;;;;;43.90;22.50;;;11.80;99.90;;;;;;5093028;28;20052;-86
2023/10/26 10:10:30;;;;;;;41.10;23.83;;;11.70;99.90;;;;;;5094251;28;20051;-84
2023/10/26 10:13:35;;;;;;;38.10;22.92;;;11.60;99.90;;;;;;5082313;28;20051;-87
2023/10/26 10:16:34;;;;;;;41.42;24.30;;;11.70;99.90;;;;;;5085673;28;20143;-82
2023/10/26 10:19:29;;;;;;;40.83;25.15;;;11.70;99.90;;;;;;5085261;28;20056;-83
2023/10/26 10:22:34;;;;;;;42.72;23.83;;;11.70;99.90;;;;;;5069655;28;20178;-84
2023/10/26 10:25:23;;;;;;;45.33;25.50;;;11.80;99.90;;;;;;5055582;28;20120;-87
2023/10/26 10:28:10;;;;;;;41.75;25.23;;;12.00;99.90;;;;;;5069291;28;20052;-81
2023/10/26 10:30:57;;;;;;;42.38;25.33;;;12.20;99.90;;;;;;5064975;28;20059;-84
2023/10/26 10:33:44;;;;;;;59.30;27.20;;;12.10;99.90;;;;;;5051538;28;20121;-83
2023/10/26 10:37:10;;;;;;;40.55;23.20;;;12.10;99.90;;;;;;5053438;28;20056;-84
2023/10/26 10:40:15;;;;;;;38.90;24.10;;;12.00;99.90;;;;;;5051653;28;20563;-84
2023/10/26 10:43:02;;;;;;;;;;;12.20;99.90;;;;;;5053889;28;20389;-84
2023/10/26 10:45:48;;;;;;;35.03;22.13;;;12.30;99.90;;;;;;5071235;28;19920;-88
2023/10/26 10:48:34;;;;;;;40.42;22.63;;;12.30;99.90;;;;;;5053032;28;20055;-87
2023/10/26 10:51:21;;;;;;;36.83;22.70;;;12.50;99.90;;;;;;5052774;28;20064;-86
2023/10/26 10:54:10;;;;;;;31.00;21.38;;;12.70;99.90;;;;;;5070613;28;20416;-83
2023/10/26 10:56:56;;;;;;;37.65;22.55;;;12.80;99.90;;;;;;5053038;28;20071;-86
2023/10/26 10:59:42;;;;;;;32.97;21.73;;;12.90;99.90;;;;;;5039109;28;20053;-84
2023/10/26 11:02:28;;;;;;;41.28;23.70;;;12.90;99.90;;;;;;5038101;28;20404;-88
2023/10/26 11:05:14;;;;;;;36.55;23.15;;;12.90;99.90;;;;;;5069813;28;20058;-88
2023/10/26 11:08:00;;;;;;;32.42;22.10;;;13.00;99.90;;;;;;5070532;28;20110;-84
2023/10/26 11:10:49;;;;;;;28.83;20.02;;;13.40;99.90;;;;;;5052442;28;20133;-84
2023/10/26 11:13:36;;;;;;;30.00;20.60;;;13.40;99.90;;;;;;5057394;28;20142;-80
2023/10/26 11:16:24;;;;;;;30.23;20.05;;;13.50;99.90;;;;;;5057142;28;20459;-83
2023/10/26 11:19:10;;;;;;;29.60;19.08;;;13.60;99.90;;;;;;5042194;28;20133;-77
2023/10/26 11:21:56;;;;;;;31.85;20.50;;;13.90;99.90;;;;;;5043525;28;20139;-84
2023/10/26 11:24:43;;;;;;;31.25;19.73;;;13.60;99.90;;;;;;5074424;28;20047;-83
2023/10/26 11:27:29;;;;;;;30.08;19.25;;;13.20;99.90;;;;;;5055973;28;20095;-90
2023/10/26 11:30:15;;;;;;;31.77;17.27;;;13.00;99.90;;;;;;5056936;28;20595;-90
2023/10/26 11:33:06;;;;;;;32.90;18.77;;;12.90;99.90;;;;;;5055152;28;20061;-85
2023/10/26 11:35:52;;;;;;;26.40;17.13;;;12.90;99.90;;;;;;5056850;28;20404;-83
2023/10/26 11:38:49;;;;;;;31.48;19.27;;;12.80;99.90;;;;;;5057391;28;20044;-82
2023/10/26 11:41:35;;;;;;;31.88;18.55;;;12.70;99.90;;;;;;5057129;28;20063;-80
2023/10/26 11:44:29;;;;;;;32.13;19.90;;;13.00;99.90;;;;;;5082037;28;20055;-86
2023/10/26 11:47:15;;;;;;;28.40;17.63;;;13.50;99.90;;;;;;5066074;28;20060;-82
2023/10/26 11:50:04;;;;;;;28.13;18.60;;;13.80;99.90;;;;;;5058589;28;20044;-83
2023/10/26 11:52:52;;;;;;;29.02;16.85;;;14.10;99.90;;;;;;5074039;28;20056;-78
2023/10/26 11:55:38;;;;;;;22.55;15.93;;;14.30;99.90;;;;;;5056552;28;20060;-82
2023/10/26 11:58:24;;;;;;;25.15;15.93;;;14.70;99.90;;;;;;5056285;28;20113;-86
2023/10/26 12:01:10;;;;;;;24.10;15.70;;;14.40;99.90;;;;;;5073245;28;20053;-86
2023/10/26 12:03:56;;;;;;;28.05;16.73;;;14.20;99.90;;;;;;5056738;28;20690;-90
2023/10/26 12:06:42;;;;;;;25.50;16.50;;;14.10;99.90;;;;;;5056489;28;20052;-91
2023/10/26 12:09:28;;;;;;;28.20;16.25;;;14.00;99.90;;;;;;5073923;28;20052;-90
2023/10/26 12:12:15;;;;;;;20.13;14.07;;;15.00;99.90;;;;;;5055187;28;20065;-80
2023/10/26 12:15:00;;;;;;;23.92;13.35;;;15.00;99.90;;;;;;5042450;28;20056;-86
2023/10/26 12:17:48;;;;;;;25.02;15.48;;;14.70;99.90;;;;;;5042942;28;20442;-89
2023/10/26 12:20:34;;;;;;;23.15;14.23;;;14.30;99.90;;;;;;5065492;28;20411;-89
2023/10/26 12:23:21;;;;;;;23.40;15.15;;;14.10;99.90;;;;;;5078233;28;20048;-79
2023/10/26 12:26:07;;;;;;;25.85;16.02;;;14.10;99.90;;;;;;5061143;28;20113;-89
2023/10/26 12:28:53;;;;;;;21.33;13.88;;;14.40;99.90;;;;;;5075135;28;20044;-90
2023/10/26 12:31:39;;;;;;;24.30;15.32;;;14.50;99.90;;;;;;5081219;28;20052;-88
2023/10/26 12:34:25;;;;;;;24.17;15.75;;;14.30;99.90;;;;;;5076468;28;20106;-86
2023/10/26 12:37:11;;;;;;;26.95;16.52;;;14.10;99.90;;;;;;5076313;28;20048;-85
2023/10/26 12:39:57;;;;;;;28.45;16.83;;;13.90;99.90;;;;;;5062502;28;20091;-81
2023/10/26 12:42:44;;;;;;;30.40;17.45;;;13.60;99.90;;;;;;5075359;28;20087;-83
2023/10/26 12:45:30;;;;;;;26.90;17.27;;;13.40;99.90;;;;;;5095032;28;20076;-90
2023/10/26 12:48:16;;;;;;;31.45;19.80;;;13.20;99.90;;;;;;5117204;28;20089;-86
2023/10/26 12:51:02;;;;;;;32.30;20.88;;;13.10;99.90;;;;;;5117411;28;20055;-84
2023/10/26 12:53:48;;;;;;;35.20;20.55;;;12.90;99.90;;;;;;5098450;28;20142;-75
2023/10/26 12:56:34;;;;;;;33.58;19.63;;;12.80;99.90;;;;;;5099491;28;20583;-79
2023/10/26 12:59:20;;;;;;;29.20;19.23;;;12.90;99.90;;;;;;5096319;28;20055;-81
2023/10/26 13:02:07;;;;;;;30.98;19.55;;;13.00;99.90;;;;;;5114923;28;20068;-81
2023/10/26 13:04:53;;;;;;;36.83;21.77;;;12.90;99.90;;;;;;5096016;28;20055;-83
2023/10/26 13:07:39;;;;;;;31.50;20.55;;;13.10;99.90;;;;;;5094994;28;20507;-86
2023/10/26 13:10:25;;;;;;;28.30;18.13;;;13.30;99.90;;;;;;5095174;28;20060;-88
2023/10/26 13:13:12;;;;;;;30.77;18.63;;;13.40;99.90;;;;;;5093509;28;20052;-76
2023/10/26 13:15:58;;;;;;;27.48;17.35;;;13.40;99.90;;;;;;5099566;28;20047;-75
2023/10/26 13:18:44;;;;;;;34.85;20.05;;;13.10;99.90;;;;;;5120134;28;20059;-80
2023/10/26 13:21:39;;;;;;;32.90;19.95;;;13.00;99.90;;;;;;5098673;28;20127;-86
2023/10/26 13:24:25;;;;;;;29.27;19.80;;;12.90;99.90;;;;;;5100839;28;20059;-74
2023/10/26 13:27:11;;;;;;;33.60;20.55;;;12.70;99.90;;;;;;5117886;28;20040;-76
2023/10/26 13:29:57;;;;;;;33.95;20.27;;;12.60;99.90;;;;;;5102024;28;20039;-76
2023/10/26 13:32:43;;;;;;;39.33;20.92;;;12.70;99.90;;;;;;5086312;28;20051;-81
2023/10/26 13:35:31;;;;;;;29.58;18.30;;;13.00;99.90;;;;;;5101377;28;20044;-83
2023/10/26 13:38:17;;;;;;;31.23;18.00;;;13.30;99.90;;;;;;5085340;28;20073;-75
2023/10/26 13:41:03;;;;;;;31.83;19.02;;;13.40;99.90;;;;;;5094128;28;20971;-79
2023/10/26 13:43:50;;;;;;;35.38;19.63;;;13.50;99.90;;;;;;5093748;28;20059;-74
2023/10/26 13:46:37;;;;;;;31.67;19.58;;;13.70;99.90;;;;;;5112364;28;20098;-85
2023/10/26 13:49:23;;;;;;;33.30;20.08;;;13.90;99.90;;;;;;5093059;28;20138;-76
2023/10/26 13:52:09;;;;;;;32.53;20.15;;;14.30;99.90;;;;;;5096207;28;20058;-76
2023/10/26 13:54:56;;;;;;;32.60;21.15;;;14.40;99.90;;;;;;5092651;28;20196;-74
2023/10/26 13:57:42;;;;;;;37.75;20.10;;;14.50;99.90;;;;;;5096862;28;20423;-75
2023/10/26 14:00:28;;;;;;;33.03;21.00;;;14.40;99.90;;;;;;5096675;28;20108;-76
2023/10/26 14:03:14;;;;;;;35.55;21.02;;;14.30;99.90;;;;;;5092794;28;20143;-74
2023/10/26 14:06:00;;;;;;;33.40;20.45;;;14.30;99.90;;;;;;5095966;28;20052;-76
2023/10/26 14:08:46;;;;;;;32.78;21.38;;;14.20;99.90;;;;;;5093697;28;20514;-76
2023/10/26 14:11:32;;;;;;;36.92;20.70;;;14.20;99.90;;;;;;5093129;28;20085;-81
2023/10/26 14:14:18;;;;;;;35.65;20.70;;;14.70;99.90;;;;;;5093412;28;20484;-81